sensor_id;sensor_type;location;lat;lon;timestamp;temperature;humidity
46552;DHT22;32278;51.810;4.712;2022-12-07T00:02:01;11.20;99.90
46552;DHT22;32278;51.810;4.712;2022-12-07T00:04:26;11.20;99.90
46552;DHT22;32278;51.810;4.712;2022-12-07T00:06:52;11.20;99.90
46552;DHT22;32278;51.810;4.712;2022-12-07T00:09:18;11.20;99.90
46552;DHT22;32278;51.810;4.712;2022-12-07T00:11:44;11.30;99.90
46552;DHT22;32278;51.810;4.712;2022-12-07T00:14:13;11.30;99.90
46552;DHT22;32278;51.810;4.712;2022-12-07T00:16:39;11.40;99.90
46552;DHT22;32278;51.810;4.712;2022-12-07T00:19:05;11.00;99.90
46552;DHT22;32278;51.810;4.712;2022-12-07T00:21:31;10.70;99.90
46552;DHT22;32278;51.810;4.712;2022-12-07T00:23:57;10.50;99.90
46552;DHT22;32278;51.810;4.712;2022-12-07T00:26:24;10.40;99.90
46552;DHT22;32278;51.810;4.712;2022-12-07T00:28:51;10.40;99.90
46552;DHT22;32278;51.810;4.712;2022-12-07T00:31:17;10.00;99.90
46552;DHT22;32278;51.810;4.712;2022-12-07T00:33:44;9.90;99.90
46552;DHT22;32278;51.810;4.712;2022-12-07T00:36:10;10.00;99.90
46552;DHT22;32278;51.810;4.712;2022-12-07T00:38:37;10.20;99.90
46552;DHT22;32278;51.810;4.712;2022-12-07T00:41:04;10.20;99.90
46552;DHT22;32278;51.810;4.712;2022-12-07T00:43:30;10.40;99.90
46552;DHT22;32278;51.810;4.712;2022-12-07T00:45:55;10.50;99.90
46552;DHT22;32278;51.810;4.712;2022-12-07T00:48:21;10.50;99.90
46552;DHT22;32278;51.810;4.712;2022-12-07T00:50:47;10.60;99.90
46552;DHT22;32278;51.810;4.712;2022-12-07T00:53:12;10.60;99.90
46552;DHT22;32278;51.810;4.712;2022-12-07T00:55:38;10.70;99.90
46552;DHT22;32278;51.810;4.712;2022-12-07T00:58:04;10.80;99.90
46552;DHT22;32278;51.810;4.712;2022-12-07T01:00:29;10.80;99.90
46552;DHT22;32278;51.810;4.712;2022-12-07T01:02:55;10.80;99.90
46552;DHT22;32278;51.810;4.712;2022-12-07T01:05:20;10.50;99.90
46552;DHT22;32278;51.810;4.712;2022-12-07T01:07:46;10.50;99.90
46552;DHT22;32278;51.810;4.712;2022-12-07T01:10:12;10.50;99.90
46552;DHT22;32278;51.810;4.712;2022-12-07T01:12:37;10.30;99.90
46552;DHT22;32278;51.810;4.712;2022-12-07T01:15:03;10.20;99.90
46552;DHT22;32278;51.810;4.712;2022-12-07T01:17:29;10.30;99.90
46552;DHT22;32278;51.810;4.712;2022-12-07T01:19:54;10.20;99.90
46552;DHT22;32278;51.810;4.712;2022-12-07T01:22:20;10.40;99.90
46552;DHT22;32278;51.810;4.712;2022-12-07T01:24:45;10.30;99.90
46552;DHT22;32278;51.810;4.712;2022-12-07T01:27:12;10.20;99.90
46552;DHT22;32278;51.810;4.712;2022-12-07T01:29:38;10.10;99.90
46552;DHT22;32278;51.810;4.712;2022-12-07T01:32:03;10.20;99.90
46552;DHT22;32278;51.810;4.712;2022-12-07T01:34:29;10.40;99.90
46552;DHT22;32278;51.810;4.712;2022-12-07T01:36:54;10.50;99.90
46552;DHT22;32278;51.810;4.712;2022-12-07T01:39:20;10.50;99.90
46552;DHT22;32278;51.810;4.712;2022-12-07T01:41:45;10.30;99.90
46552;DHT22;32278;51.810;4.712;2022-12-07T01:44:32;10.30;99.90
46552;DHT22;32278;51.810;4.712;2022-12-07T01:46:59;10.40;99.90
46552;DHT22;32278;51.810;4.712;2022-12-07T01:49:31;10.50;99.90
46552;DHT22;32278;51.810;4.712;2022-12-07T01:52:13;10.20;99.90
46552;DHT22;32278;51.810;4.712;2022-12-07T01:54:39;10.20;99.90
46552;DHT22;32278;51.810;4.712;2022-12-07T01:57:05;10.20;99.90
46552;DHT22;32278;51.810;4.712;2022-12-07T01:59:32;10.50;99.90
46552;DHT22;32278;51.810;4.712;2022-12-07T02:01:58;10.50;99.90
46552;DHT22;32278;51.810;4.712;2022-12-07T02:04:24;10.60;99.90
46552;DHT22;32278;51.810;4.712;2022-12-07T02:06:50;10.50;99.90
46552;DHT22;32278;51.810;4.712;2022-12-07T02:09:15;10.70;99.90
46552;DHT22;32278;51.810;4.712;2022-12-07T02:11:41;10.50;99.90
46552;DHT22;32278;51.810;4.712;2022-12-07T02:14:06;10.40;99.90
46552;DHT22;32278;51.810;4.712;2022-12-07T02:21:57;10.10;99.90
46552;DHT22;32278;51.810;4.712;2022-12-07T02:29:27;9.90;99.90
46552;DHT22;32278;51.810;4.712;2022-12-07T02:37:00;9.50;99.90
46552;DHT22;32278;51.810;4.712;2022-12-07T02:41:53;9.60;99.90
46552;DHT22;32278;51.810;4.712;2022-12-07T02:44:22;9.70;99.90
46552;DHT22;32278;51.810;4.712;2022-12-07T02:47:02;9.70;99.90
46552;DHT22;32278;51.810;4.712;2022-12-07T02:49:28;9.60;99.90
46552;DHT22;32278;51.810;4.712;2022-12-07T02:51:54;9.50;99.90
46552;DHT22;32278;51.810;4.712;2022-12-07T02:54:20;9.60;99.90
46552;DHT22;32278;51.810;4.712;2022-12-07T02:59:41;9.50;99.90
46552;DHT22;32278;51.810;4.712;2022-12-07T03:04:53;9.30;99.90
46552;DHT22;32278;51.810;4.712;2022-12-07T03:07:33;9.30;99.90
46552;DHT22;32278;51.810;4.712;2022-12-07T03:10:07;9.10;99.90
46552;DHT22;32278;51.810;4.712;2022-12-07T03:12:39;9.00;99.90
46552;DHT22;32278;51.810;4.712;2022-12-07T03:15:14;8.80;99.90
46552;DHT22;32278;51.810;4.712;2022-12-07T03:17:42;9.00;99.90
46552;DHT22;32278;51.810;4.712;2022-12-07T03:20:10;9.10;99.90
46552;DHT22;32278;51.810;4.712;2022-12-07T03:22:37;9.20;99.90
46552;DHT22;32278;51.810;4.712;2022-12-07T03:25:05;9.10;99.90
46552;DHT22;32278;51.810;4.712;2022-12-07T03:27:50;9.10;99.90
46552;DHT22;32278;51.810;4.712;2022-12-07T03:30:20;9.20;99.90
46552;DHT22;32278;51.810;4.712;2022-12-07T03:32:53;9.40;99.90
46552;DHT22;32278;51.810;4.712;2022-12-07T03:40:29;9.40;99.90
46552;DHT22;32278;51.810;4.712;2022-12-07T03:42:55;9.70;99.90
46552;DHT22;32278;51.810;4.712;2022-12-07T03:45:23;9.80;99.90
46552;DHT22;32278;51.810;4.712;2022-12-07T03:47:54;9.90;99.90
46552;DHT22;32278;51.810;4.712;2022-12-07T03:50:28;9.90;99.90
46552;DHT22;32278;51.810;4.712;2022-12-07T03:53:02;9.80;99.90
46552;DHT22;32278;51.810;4.712;2022-12-07T03:55:31;9.80;99.90
46552;DHT22;32278;51.810;4.712;2022-12-07T03:58:05;9.90;99.90
46552;DHT22;32278;51.810;4.712;2022-12-07T04:00:31;9.90;99.90
46552;DHT22;32278;51.810;4.712;2022-12-07T04:02:57;9.80;99.90
46552;DHT22;32278;51.810;4.712;2022-12-07T04:05:23;9.90;99.90
46552;DHT22;32278;51.810;4.712;2022-12-07T04:07:49;9.80;99.90
46552;DHT22;32278;51.810;4.712;2022-12-07T04:10:14;9.70;99.90
46552;DHT22;32278;51.810;4.712;2022-12-07T04:12:40;9.60;99.90
46552;DHT22;32278;51.810;4.712;2022-12-07T04:15:05;9.70;99.90
46552;DHT22;32278;51.810;4.712;2022-12-07T04:17:31;9.80;99.90
46552;DHT22;32278;51.810;4.712;2022-12-07T04:19:57;9.80;99.90
46552;DHT22;32278;51.810;4.712;2022-12-07T04:22:22;9.70;99.90
46552;DHT22;32278;51.810;4.712;2022-12-07T04:24:48;9.70;99.90
46552;DHT22;32278;51.810;4.712;2022-12-07T04:27:13;9.70;99.90
46552;DHT22;32278;51.810;4.712;2022-12-07T04:29:39;9.60;99.90
46552;DHT22;32278;51.810;4.712;2022-12-07T04:32:05;9.40;99.90
46552;DHT22;32278;51.810;4.712;2022-12-07T04:34:30;9.40;99.90
46552;DHT22;32278;51.810;4.712;2022-12-07T04:36:56;9.10;99.90
46552;DHT22;32278;51.810;4.712;2022-12-07T04:39:22;9.10;99.90
46552;DHT22;32278;51.810;4.712;2022-12-07T04:41:48;9.20;99.90
46552;DHT22;32278;51.810;4.712;2022-12-07T04:44:14;9.00;99.90
46552;DHT22;32278;51.810;4.712;2022-12-07T04:46:40;9.00;99.90
46552;DHT22;32278;51.810;4.712;2022-12-07T04:49:06;8.80;99.90
46552;DHT22;32278;51.810;4.712;2022-12-07T04:51:31;8.70;99.90
46552;DHT22;32278;51.810;4.712;2022-12-07T04:53:57;8.70;99.90
46552;DHT22;32278;51.810;4.712;2022-12-07T04:56:23;8.80;99.90
46552;DHT22;32278;51.810;4.712;2022-12-07T04:58:49;8.60;99.90
46552;DHT22;32278;51.810;4.712;2022-12-07T05:01:16;8.70;99.90
46552;DHT22;32278;51.810;4.712;2022-12-07T05:03:41;8.60;99.90
46552;DHT22;32278;51.810;4.712;2022-12-07T05:06:07;8.60;99.90
46552;DHT22;32278;51.810;4.712;2022-12-07T05:08:33;8.30;99.90
46552;DHT22;32278;51.810;4.712;2022-12-07T05:10:59;8.50;99.90
46552;DHT22;32278;51.810;4.712;2022-12-07T05:13:24;8.50;99.90
46552;DHT22;32278;51.810;4.712;2022-12-07T05:15:50;8.70;99.90
46552;DHT22;32278;51.810;4.712;2022-12-07T05:18:15;8.70;99.90
46552;DHT22;32278;51.810;4.712;2022-12-07T05:20:42;8.70;99.90
46552;DHT22;32278;51.810;4.712;2022-12-07T05:23:07;8.60;99.90
46552;DHT22;32278;51.810;4.712;2022-12-07T05:25:33;8.50;99.90
46552;DHT22;32278;51.810;4.712;2022-12-07T05:27:58;8.70;99.90
46552;DHT22;32278;51.810;4.712;2022-12-07T05:30:24;8.70;99.90
46552;DHT22;32278;51.810;4.712;2022-12-07T05:32:50;8.90;99.90
46552;DHT22;32278;51.810;4.712;2022-12-07T05:35:16;9.00;99.90
46552;DHT22;32278;51.810;4.712;2022-12-07T05:37:42;9.00;99.90
46552;DHT22;32278;51.810;4.712;2022-12-07T05:40:08;9.10;99.90
46552;DHT22;32278;51.810;4.712;2022-12-07T05:42:34;9.10;99.90
46552;DHT22;32278;51.810;4.712;2022-12-07T05:44:59;9.30;99.90
46552;DHT22;32278;51.810;4.712;2022-12-07T05:47:25;9.20;99.90
46552;DHT22;32278;51.810;4.712;2022-12-07T05:49:50;9.20;99.90
46552;DHT22;32278;51.810;4.712;2022-12-07T05:52:16;9.10;99.90
46552;DHT22;32278;51.810;4.712;2022-12-07T05:54:42;8.90;99.90
46552;DHT22;32278;51.810;4.712;2022-12-07T05:57:07;8.70;99.90
46552;DHT22;32278;51.810;4.712;2022-12-07T05:59:33;8.60;99.90
46552;DHT22;32278;51.810;4.712;2022-12-07T06:01:59;8.70;99.90
46552;DHT22;32278;51.810;4.712;2022-12-07T06:04:27;8.60;99.90
46552;DHT22;32278;51.810;4.712;2022-12-07T06:06:53;8.60;99.90
46552;DHT22;32278;51.810;4.712;2022-12-07T06:09:19;8.50;99.90
46552;DHT22;32278;51.810;4.712;2022-12-07T06:11:45;8.30;99.90
46552;DHT22;32278;51.810;4.712;2022-12-07T06:14:29;8.30;99.90
46552;DHT22;32278;51.810;4.712;2022-12-07T06:16:55;8.20;99.90
46552;DHT22;32278;51.810;4.712;2022-12-07T06:19:21;8.10;99.90
46552;DHT22;32278;51.810;4.712;2022-12-07T06:21:46;8.10;99.90
46552;DHT22;32278;51.810;4.712;2022-12-07T06:24:12;7.80;99.90
46552;DHT22;32278;51.810;4.712;2022-12-07T06:26:39;7.80;99.90
46552;DHT22;32278;51.810;4.712;2022-12-07T06:29:04;7.90;99.90
46552;DHT22;32278;51.810;4.712;2022-12-07T06:31:30;7.90;99.90
46552;DHT22;32278;51.810;4.712;2022-12-07T06:33:59;7.80;99.90
46552;DHT22;32278;51.810;4.712;2022-12-07T06:36:25;7.70;99.90
46552;DHT22;32278;51.810;4.712;2022-12-07T06:38:50;7.70;99.90
46552;DHT22;32278;51.810;4.712;2022-12-07T06:41:16;7.50;99.90
46552;DHT22;32278;51.810;4.712;2022-12-07T06:43:41;7.60;99.90
46552;DHT22;32278;51.810;4.712;2022-12-07T06:46:07;7.60;99.90
46552;DHT22;32278;51.810;4.712;2022-12-07T06:48:33;7.70;99.90
46552;DHT22;32278;51.810;4.712;2022-12-07T06:50:58;8.00;99.90
46552;DHT22;32278;51.810;4.712;2022-12-07T06:53:23;7.80;99.90
46552;DHT22;32278;51.810;4.712;2022-12-07T06:55:49;7.90;99.90
46552;DHT22;32278;51.810;4.712;2022-12-07T06:58:15;7.90;99.90
46552;DHT22;32278;51.810;4.712;2022-12-07T07:00:40;7.60;99.90
46552;DHT22;32278;51.810;4.712;2022-12-07T07:03:06;7.80;99.90
46552;DHT22;32278;51.810;4.712;2022-12-07T07:05:31;7.70;99.90
46552;DHT22;32278;51.810;4.712;2022-12-07T07:07:57;7.70;99.90
46552;DHT22;32278;51.810;4.712;2022-12-07T07:10:22;7.90;99.90
46552;DHT22;32278;51.810;4.712;2022-12-07T07:12:48;7.60;99.90
46552;DHT22;32278;51.810;4.712;2022-12-07T07:15:13;7.60;99.90
46552;DHT22;32278;51.810;4.712;2022-12-07T07:17:39;7.70;99.90
46552;DHT22;32278;51.810;4.712;2022-12-07T07:20:05;7.70;99.90
46552;DHT22;32278;51.810;4.712;2022-12-07T07:22:30;7.70;99.90
46552;DHT22;32278;51.810;4.712;2022-12-07T07:24:56;7.70;99.90
46552;DHT22;32278;51.810;4.712;2022-12-07T07:27:21;7.60;99.90
46552;DHT22;32278;51.810;4.712;2022-12-07T07:29:47;7.90;99.90
46552;DHT22;32278;51.810;4.712;2022-12-07T07:32:12;7.80;99.90
46552;DHT22;32278;51.810;4.712;2022-12-07T07:34:37;7.60;99.90
46552;DHT22;32278;51.810;4.712;2022-12-07T07:37:03;7.60;99.90
46552;DHT22;32278;51.810;4.712;2022-12-07T07:39:29;7.70;99.90
46552;DHT22;32278;51.810;4.712;2022-12-07T07:41:54;7.70;99.90
46552;DHT22;32278;51.810;4.712;2022-12-07T07:44:20;7.80;99.90
46552;DHT22;32278;51.810;4.712;2022-12-07T07:46:45;8.00;99.90
46552;DHT22;32278;51.810;4.712;2022-12-07T07:49:11;8.10;99.90
46552;DHT22;32278;51.810;4.712;2022-12-07T07:51:36;8.30;99.90
46552;DHT22;32278;51.810;4.712;2022-12-07T07:54:03;8.50;99.90
46552;DHT22;32278;51.810;4.712;2022-12-07T07:56:28;8.60;99.90
46552;DHT22;32278;51.810;4.712;2022-12-07T07:58:54;8.30;99.90
46552;DHT22;32278;51.810;4.712;2022-12-07T08:01:20;8.30;99.90
46552;DHT22;32278;51.810;4.712;2022-12-07T08:03:46;8.30;99.90
46552;DHT22;32278;51.810;4.712;2022-12-07T08:06:11;8.30;99.90
46552;DHT22;32278;51.810;4.712;2022-12-07T08:08:37;8.30;99.90
46552;DHT22;32278;51.810;4.712;2022-12-07T08:11:05;8.50;99.90
46552;DHT22;32278;51.810;4.712;2022-12-07T08:13:31;8.20;99.90
46552;DHT22;32278;51.810;4.712;2022-12-07T08:15:57;8.30;99.90
46552;DHT22;32278;51.810;4.712;2022-12-07T08:18:22;8.30;99.90
46552;DHT22;32278;51.810;4.712;2022-12-07T08:20:48;8.50;99.90
46552;DHT22;32278;51.810;4.712;2022-12-07T08:23:13;8.70;99.90
46552;DHT22;32278;51.810;4.712;2022-12-07T08:25:39;8.60;99.90
46552;DHT22;32278;51.810;4.712;2022-12-07T08:28:04;8.60;99.90
46552;DHT22;32278;51.810;4.712;2022-12-07T08:30:30;8.30;99.90
46552;DHT22;32278;51.810;4.712;2022-12-07T08:32:56;8.20;99.90
46552;DHT22;32278;51.810;4.712;2022-12-07T08:35:21;8.30;99.90
46552;DHT22;32278;51.810;4.712;2022-12-07T08:37:47;8.10;99.90
46552;DHT22;32278;51.810;4.712;2022-12-07T08:40:13;8.00;99.90
46552;DHT22;32278;51.810;4.712;2022-12-07T08:42:47;8.20;99.90
46552;DHT22;32278;51.810;4.712;2022-12-07T08:45:13;8.20;99.90
46552;DHT22;32278;51.810;4.712;2022-12-07T08:47:43;8.30;99.90
46552;DHT22;32278;51.810;4.712;2022-12-07T08:50:10;8.60;99.90
46552;DHT22;32278;51.810;4.712;2022-12-07T08:52:36;8.70;99.90
46552;DHT22;32278;51.810;4.712;2022-12-07T08:55:02;8.70;99.90
46552;DHT22;32278;51.810;4.712;2022-12-07T08:57:28;8.90;99.90
46552;DHT22;32278;51.810;4.712;2022-12-07T08:59:54;8.90;99.90
46552;DHT22;32278;51.810;4.712;2022-12-07T09:02:20;9.00;99.90
46552;DHT22;32278;51.810;4.712;2022-12-07T09:04:46;8.90;99.90
46552;DHT22;32278;51.810;4.712;2022-12-07T09:07:11;8.90;99.90
46552;DHT22;32278;51.810;4.712;2022-12-07T09:09:37;9.00;99.90
46552;DHT22;32278;51.810;4.712;2022-12-07T09:12:02;8.90;99.90
46552;DHT22;32278;51.810;4.712;2022-12-07T09:14:28;9.10;99.90
46552;DHT22;32278;51.810;4.712;2022-12-07T09:16:54;9.10;99.90
46552;DHT22;32278;51.810;4.712;2022-12-07T09:19:19;9.10;99.90
46552;DHT22;32278;51.810;4.712;2022-12-07T09:21:45;9.10;99.90
46552;DHT22;32278;51.810;4.712;2022-12-07T09:24:11;9.10;99.90
46552;DHT22;32278;51.810;4.712;2022-12-07T09:26:37;9.20;99.90
46552;DHT22;32278;51.810;4.712;2022-12-07T09:29:04;9.30;99.90
46552;DHT22;32278;51.810;4.712;2022-12-07T09:31:30;9.30;99.90
46552;DHT22;32278;51.810;4.712;2022-12-07T09:33:59;9.30;99.90
46552;DHT22;32278;51.810;4.712;2022-12-07T09:36:25;9.40;99.90
46552;DHT22;32278;51.810;4.712;2022-12-07T09:38:51;9.40;99.90
46552;DHT22;32278;51.810;4.712;2022-12-07T09:41:17;9.60;99.90
46552;DHT22;32278;51.810;4.712;2022-12-07T09:43:42;9.60;99.90
46552;DHT22;32278;51.810;4.712;2022-12-07T09:46:09;9.60;99.90
46552;DHT22;32278;51.810;4.712;2022-12-07T09:48:38;9.80;99.90
46552;DHT22;32278;51.810;4.712;2022-12-07T09:51:17;9.70;99.90
46552;DHT22;32278;51.810;4.712;2022-12-07T09:53:43;9.90;99.90
46552;DHT22;32278;51.810;4.712;2022-12-07T09:56:13;9.80;99.90
46552;DHT22;32278;51.810;4.712;2022-12-07T09:58:40;9.70;99.90
46552;DHT22;32278;51.810;4.712;2022-12-07T10:01:10;9.70;99.90
46552;DHT22;32278;51.810;4.712;2022-12-07T10:03:38;9.70;99.90
46552;DHT22;32278;51.810;4.712;2022-12-07T10:06:04;9.70;99.90
46552;DHT22;32278;51.810;4.712;2022-12-07T10:08:31;9.70;99.90
46552;DHT22;32278;51.810;4.712;2022-12-07T10:10:57;9.60;99.90
46552;DHT22;32278;51.810;4.712;2022-12-07T10:13:44;9.60;99.90
46552;DHT22;32278;51.810;4.712;2022-12-07T10:16:32;9.60;99.90
46552;DHT22;32278;51.810;4.712;2022-12-07T10:19:16;9.80;99.90
46552;DHT22;32278;51.810;4.712;2022-12-07T10:21:42;9.90;99.90
46552;DHT22;32278;51.810;4.712;2022-12-07T10:24:23;9.80;99.90
46552;DHT22;32278;51.810;4.712;2022-12-07T10:26:52;9.80;99.90
46552;DHT22;32278;51.810;4.712;2022-12-07T10:29:22;9.90;99.90
46552;DHT22;32278;51.810;4.712;2022-12-07T10:31:55;10.10;99.90
46552;DHT22;32278;51.810;4.712;2022-12-07T10:34:26;10.20;99.90
46552;DHT22;32278;51.810;4.712;2022-12-07T10:36:52;10.30;99.90
46552;DHT22;32278;51.810;4.712;2022-12-07T10:39:20;10.30;99.90
46552;DHT22;32278;51.810;4.712;2022-12-07T10:44:22;10.00;99.90
46552;DHT22;32278;51.810;4.712;2022-12-07T10:46:51;10.10;99.90
46552;DHT22;32278;51.810;4.712;2022-12-07T10:52:13;9.70;99.90
46552;DHT22;32278;51.810;4.712;2022-12-07T11:02:41;9.40;99.90
46552;DHT22;32278;51.810;4.712;2022-12-07T11:05:14;9.70;99.90
46552;DHT22;32278;51.810;4.712;2022-12-07T11:08:44;9.90;99.90
46552;DHT22;32278;51.810;4.712;2022-12-07T11:10:40;10.00;99.90
46552;DHT22;32278;51.810;4.712;2022-12-07T11:18:41;10.10;99.90
46552;DHT22;32278;51.810;4.712;2022-12-07T11:26:29;9.70;99.90
46552;DHT22;32278;51.810;4.712;2022-12-07T11:31:33;9.70;99.90
46552;DHT22;32278;51.810;4.712;2022-12-07T11:34:15;9.60;99.90
46552;DHT22;32278;51.810;4.712;2022-12-07T11:36:43;9.70;99.90
46552;DHT22;32278;51.810;4.712;2022-12-07T11:41:45;9.70;99.90
46552;DHT22;32278;51.810;4.712;2022-12-07T11:44:50;10.10;99.90
46552;DHT22;32278;51.810;4.712;2022-12-07T11:47:07;10.20;99.90
46552;DHT22;32278;51.810;4.712;2022-12-07T11:52:01;9.50;99.90
46552;DHT22;32278;51.810;4.712;2022-12-07T11:54:29;9.40;99.90
46552;DHT22;32278;51.810;4.712;2022-12-07T11:56:56;9.40;99.90
46552;DHT22;32278;51.810;4.712;2022-12-07T11:59:38;9.30;99.90
46552;DHT22;32278;51.810;4.712;2022-12-07T12:02:48;9.20;99.90
46552;DHT22;32278;51.810;4.712;2022-12-07T12:04:55;9.20;99.90
46552;DHT22;32278;51.810;4.712;2022-12-07T12:07:22;9.60;99.90
46552;DHT22;32278;51.810;4.712;2022-12-07T12:09:49;9.50;99.90
46552;DHT22;32278;51.810;4.712;2022-12-07T12:17:30;9.20;99.90
46552;DHT22;32278;51.810;4.712;2022-12-07T12:20:03;9.10;99.90
46552;DHT22;32278;51.810;4.712;2022-12-07T12:22:35;8.90;99.90
46552;DHT22;32278;51.810;4.712;2022-12-07T12:25:03;8.90;99.90
46552;DHT22;32278;51.810;4.712;2022-12-07T12:27:34;8.80;99.90
46552;DHT22;32278;51.810;4.712;2022-12-07T12:30:01;8.80;99.90
46552;DHT22;32278;51.810;4.712;2022-12-07T12:32:40;8.50;99.90
46552;DHT22;32278;51.810;4.712;2022-12-07T12:37:44;7.70;99.90
46552;DHT22;32278;51.810;4.712;2022-12-07T12:42:51;7.90;99.90
46552;DHT22;32278;51.810;4.712;2022-12-07T12:45:30;8.00;99.90
46552;DHT22;32278;51.810;4.712;2022-12-07T12:50:32;8.30;99.90
46552;DHT22;32278;51.810;4.712;2022-12-07T12:55:43;8.60;99.90
46552;DHT22;32278;51.810;4.712;2022-12-07T13:00:43;8.80;99.90
46552;DHT22;32278;51.810;4.712;2022-12-07T13:03:20;9.00;99.90
46552;DHT22;32278;51.810;4.712;2022-12-07T13:05:46;9.20;99.90
46552;DHT22;32278;51.810;4.712;2022-12-07T13:10:38;9.80;99.90
46552;DHT22;32278;51.810;4.712;2022-12-07T13:20:46;9.40;99.90
46552;DHT22;32278;51.810;4.712;2022-12-07T13:23:12;9.30;99.90
46552;DHT22;32278;51.810;4.712;2022-12-07T13:25:48;9.00;99.90
46552;DHT22;32278;51.810;4.712;2022-12-07T13:28:17;9.00;99.90
46552;DHT22;32278;51.810;4.712;2022-12-07T13:30:54;8.90;99.90
46552;DHT22;32278;51.810;4.712;2022-12-07T13:33:23;9.10;99.90
46552;DHT22;32278;51.810;4.712;2022-12-07T13:35:50;9.20;99.90
46552;DHT22;32278;51.810;4.712;2022-12-07T13:38:53;9.00;99.90
46552;DHT22;32278;51.810;4.712;2022-12-07T13:43:42;9.10;99.90
46552;DHT22;32278;51.810;4.712;2022-12-07T13:46:08;9.20;99.90
46552;DHT22;32278;51.810;4.712;2022-12-07T13:48:45;9.00;99.90
46552;DHT22;32278;51.810;4.712;2022-12-07T13:51:18;8.90;99.90
46552;DHT22;32278;51.810;4.712;2022-12-07T13:53:48;8.90;99.90
46552;DHT22;32278;51.810;4.712;2022-12-07T13:56:15;9.00;99.90
46552;DHT22;32278;51.810;4.712;2022-12-07T13:58:41;9.00;99.90
46552;DHT22;32278;51.810;4.712;2022-12-07T14:01:06;9.20;99.90
46552;DHT22;32278;51.810;4.712;2022-12-07T14:03:33;9.00;99.90
46552;DHT22;32278;51.810;4.712;2022-12-07T14:06:06;9.00;99.90
46552;DHT22;32278;51.810;4.712;2022-12-07T14:08:32;9.00;99.90
46552;DHT22;32278;51.810;4.712;2022-12-07T14:10:58;9.10;99.90
46552;DHT22;32278;51.810;4.712;2022-12-07T14:13:31;9.30;99.90
46552;DHT22;32278;51.810;4.712;2022-12-07T14:15:57;9.20;99.90
46552;DHT22;32278;51.810;4.712;2022-12-07T14:18:34;9.20;99.90
46552;DHT22;32278;51.810;4.712;2022-12-07T14:23:36;9.30;99.90
46552;DHT22;32278;51.810;4.712;2022-12-07T14:26:11;9.30;99.90
46552;DHT22;32278;51.810;4.712;2022-12-07T14:28:37;9.30;99.90
46552;DHT22;32278;51.810;4.712;2022-12-07T14:31:03;9.30;99.90
46552;DHT22;32278;51.810;4.712;2022-12-07T14:33:29;9.20;99.90
46552;DHT22;32278;51.810;4.712;2022-12-07T14:35:54;9.10;99.90
46552;DHT22;32278;51.810;4.712;2022-12-07T14:38:21;9.00;99.90
46552;DHT22;32278;51.810;4.712;2022-12-07T14:40:47;9.00;99.90
46552;DHT22;32278;51.810;4.712;2022-12-07T14:43:14;9.10;99.90
46552;DHT22;32278;51.810;4.712;2022-12-07T14:45:40;9.10;99.90
46552;DHT22;32278;51.810;4.712;2022-12-07T14:48:07;8.90;99.90
46552;DHT22;32278;51.810;4.712;2022-12-07T14:50:35;8.90;99.90
46552;DHT22;32278;51.810;4.712;2022-12-07T14:53:01;8.90;99.90
46552;DHT22;32278;51.810;4.712;2022-12-07T14:55:28;8.90;99.90
46552;DHT22;32278;51.810;4.712;2022-12-07T14:57:54;9.00;99.90
46552;DHT22;32278;51.810;4.712;2022-12-07T15:00:21;9.00;99.90
46552;DHT22;32278;51.810;4.712;2022-12-07T15:02:48;9.00;99.90
46552;DHT22;32278;51.810;4.712;2022-12-07T15:05:14;8.90;99.90
46552;DHT22;32278;51.810;4.712;2022-12-07T15:07:39;8.90;99.90
46552;DHT22;32278;51.810;4.712;2022-12-07T15:10:05;8.90;99.90
46552;DHT22;32278;51.810;4.712;2022-12-07T15:12:31;8.70;99.90
46552;DHT22;32278;51.810;4.712;2022-12-07T15:14:57;8.60;99.90
46552;DHT22;32278;51.810;4.712;2022-12-07T15:17:22;8.50;99.90
46552;DHT22;32278;51.810;4.712;2022-12-07T15:19:48;8.50;99.90
46552;DHT22;32278;51.810;4.712;2022-12-07T15:22:13;8.40;99.90
46552;DHT22;32278;51.810;4.712;2022-12-07T15:24:39;8.40;99.90
46552;DHT22;32278;51.810;4.712;2022-12-07T15:27:04;8.30;99.90
46552;DHT22;32278;51.810;4.712;2022-12-07T15:29:30;8.30;99.90
46552;DHT22;32278;51.810;4.712;2022-12-07T15:31:55;8.30;99.90
46552;DHT22;32278;51.810;4.712;2022-12-07T15:34:21;8.40;99.90
46552;DHT22;32278;51.810;4.712;2022-12-07T15:36:46;8.50;99.90
46552;DHT22;32278;51.810;4.712;2022-12-07T15:39:12;8.30;99.90
46552;DHT22;32278;51.810;4.712;2022-12-07T15:41:38;8.40;99.90
46552;DHT22;32278;51.810;4.712;2022-12-07T15:44:03;8.30;99.90
46552;DHT22;32278;51.810;4.712;2022-12-07T15:46:47;8.20;99.90
46552;DHT22;32278;51.810;4.712;2022-12-07T15:49:15;8.20;99.90
46552;DHT22;32278;51.810;4.712;2022-12-07T15:51:41;8.20;99.90
46552;DHT22;32278;51.810;4.712;2022-12-07T15:54:07;8.10;99.90
46552;DHT22;32278;51.810;4.712;2022-12-07T15:56:33;8.10;99.90
46552;DHT22;32278;51.810;4.712;2022-12-07T15:58:59;8.20;99.90
46552;DHT22;32278;51.810;4.712;2022-12-07T16:01:24;8.40;99.90
46552;DHT22;32278;51.810;4.712;2022-12-07T16:03:50;8.50;99.90
46552;DHT22;32278;51.810;4.712;2022-12-07T16:06:16;8.60;99.90
46552;DHT22;32278;51.810;4.712;2022-12-07T16:08:43;8.60;99.90
46552;DHT22;32278;51.810;4.712;2022-12-07T16:11:09;8.50;99.90
46552;DHT22;32278;51.810;4.712;2022-12-07T16:13:34;8.40;99.90
46552;DHT22;32278;51.810;4.712;2022-12-07T16:16:04;8.60;99.90
46552;DHT22;32278;51.810;4.712;2022-12-07T16:18:30;8.40;99.90
46552;DHT22;32278;51.810;4.712;2022-12-07T16:20:55;8.40;99.90
46552;DHT22;32278;51.810;4.712;2022-12-07T16:23:21;8.30;99.90
46552;DHT22;32278;51.810;4.712;2022-12-07T16:25:46;8.40;99.90
46552;DHT22;32278;51.810;4.712;2022-12-07T16:28:12;8.20;99.90
46552;DHT22;32278;51.810;4.712;2022-12-07T16:30:37;8.30;99.90
46552;DHT22;32278;51.810;4.712;2022-12-07T16:33:03;8.20;99.90
46552;DHT22;32278;51.810;4.712;2022-12-07T16:35:28;8.40;99.90
46552;DHT22;32278;51.810;4.712;2022-12-07T16:37:54;8.20;99.90
46552;DHT22;32278;51.810;4.712;2022-12-07T16:40:19;8.00;99.90
46552;DHT22;32278;51.810;4.712;2022-12-07T16:42:45;8.10;99.90
46552;DHT22;32278;51.810;4.712;2022-12-07T16:45:10;8.10;99.90
46552;DHT22;32278;51.810;4.712;2022-12-07T16:47:39;8.10;99.90
46552;DHT22;32278;51.810;4.712;2022-12-07T16:50:04;8.00;99.90
46552;DHT22;32278;51.810;4.712;2022-12-07T16:52:30;8.10;99.90
46552;DHT22;32278;51.810;4.712;2022-12-07T16:54:55;8.00;99.90
46552;DHT22;32278;51.810;4.712;2022-12-07T16:57:21;8.10;99.90
46552;DHT22;32278;51.810;4.712;2022-12-07T16:59:46;8.00;99.90
46552;DHT22;32278;51.810;4.712;2022-12-07T17:02:12;8.10;99.90
46552;DHT22;32278;51.810;4.712;2022-12-07T17:04:38;8.00;99.90
46552;DHT22;32278;51.810;4.712;2022-12-07T17:07:05;8.10;99.90
46552;DHT22;32278;51.810;4.712;2022-12-07T17:09:30;8.00;99.90
46552;DHT22;32278;51.810;4.712;2022-12-07T17:11:56;8.20;99.90
46552;DHT22;32278;51.810;4.712;2022-12-07T17:14:22;8.30;99.90
46552;DHT22;32278;51.810;4.712;2022-12-07T17:17:06;8.30;99.90
46552;DHT22;32278;51.810;4.712;2022-12-07T17:19:31;8.20;99.90